Terminal Aerodrome Forecast
Issued by NWS North Platte, NE

Home | Current Version | Previous Version | Graphics & Text | Print | Product List | Glossary On
Versions: 1 2 3 4 5 6 7 8 9 10 11 12 13 14
057
FTUS43 KLBF 251733
TAFVTN
TAF
KVTN 251733Z 2518/2618 31024G31KT P6SM SKC
     FM260100 31011KT P6SM SKC
     FM260300 VRB06KT P6SM SKC
     FM261300 29010KT P6SM SKC=

USA.gov is the U.S. government's official web portal to all federal, state and local government web resources and services.